Time;durP1;ratioP1;P1;durP2;ratioP2;P2;SDS_P1;SDS_P2;PMS_P1;PMS_P2;Temp;Humidity;BMP_temperature;BMP_pressure;BME280_temperature;BME280_humidity;BME280_pressure;Samples;Min_cycle;Max_cycle;Signal;HPM_P1;HPM_P2
2022/09/29 00:01:31;;;;;;;0.10;0.10;;;;;;;10.17;68.80;100055.69;5066132;28;20021;-80
2022/09/29 00:03:57;;;;;;;0.10;0.10;;;;;;;10.16;68.58;100053.94;5062481;28;20028;-80
2022/09/29 00:06:23;;;;;;;0.10;0.10;;;;;;;10.16;68.67;100063.66;5068407;28;20059;-80
2022/09/29 00:08:50;;;;;;;0.10;0.10;;;;;;;10.15;68.60;100054.84;5069940;28;20025;-80
2022/09/29 00:11:18;;;;;;;0.20;0.20;;;;;;;10.17;68.73;100054.81;5065185;28;20064;-81
2022/09/29 00:13:45;;;;;;;0.10;0.10;;;;;;;10.14;68.83;100061.09;5066026;28;20408;-80
2022/09/29 00:16:13;;;;;;;0.20;0.20;;;;;;;10.12;68.67;100054.97;5065870;28;20035;-80
2022/09/29 00:18:39;;;;;;;0.10;0.10;;;;;;;10.10;68.65;100047.97;5067832;28;20036;-81
2022/09/29 00:21:09;;;;;;;0.10;0.10;;;;;;;10.10;68.80;100053.28;5070182;28;20036;-81
2022/09/29 00:23:36;;;;;;;0.10;0.10;;;;;;;10.07;68.77;100048.06;5069986;28;20032;-81
2022/09/29 00:26:08;;;;;;;0.10;0.10;;;;;;;10.09;69.01;100048.88;5070373;28;20028;-81
2022/09/29 00:28:36;;;;;;;0.13;0.13;;;;;;;10.04;68.53;100049.03;5067355;28;20017;-81
2022/09/29 00:31:04;;;;;;;0.10;0.10;;;;;;;10.03;68.81;100050.81;5070746;28;20046;-81
2022/09/29 00:33:32;;;;;;;0.10;0.10;;;;;;;10.01;68.51;100055.28;5062652;28;20040;-81
2022/09/29 00:36:01;;;;;;;0.75;0.75;;;;;;;10.00;68.65;100053.53;5068583;28;20028;-81
2022/09/29 00:38:28;;;;;;;0.10;0.10;;;;;;;9.99;68.79;100050.94;5071818;28;20021;-80
2022/09/29 00:40:54;;;;;;;0.30;0.30;;;;;;;9.98;68.58;100050.09;5072585;28;20388;-81
2022/09/29 00:43:24;;;;;;;0.10;0.10;;;;;;;9.96;68.91;100057.19;5069094;28;20060;-80
2022/09/29 00:45:53;;;;;;;0.10;0.10;;;;;;;9.96;69.20;100057.19;5066012;28;20028;-81
2022/09/29 00:48:28;;;;;;;0.10;0.10;;;;;;;9.99;69.25;100046.53;5064592;28;20037;-81
2022/09/29 00:50:55;;;;;;;0.25;0.25;;;;;;;9.98;69.15;100050.09;5061215;28;20060;-80
2022/09/29 00:53:23;;;;;;;0.50;0.50;;;;;;;9.97;69.08;100056.28;5071559;28;20032;-80
2022/09/29 00:55:58;;;;;;;0.25;0.25;;;;;;;10.00;69.03;100056.19;5074992;28;20106;-80
2022/09/29 00:58:32;;;;;;;0.57;0.57;;;;;;;10.00;69.00;100053.53;5074629;28;20487;-80
2022/09/29 01:00:59;;;;;;;0.10;0.10;;;;;;;9.99;69.22;100061.53;5063295;28;20041;-80
2022/09/29 01:03:29;;;;;;;0.10;0.10;;;;;;;9.99;68.89;100051.81;5065229;28;20052;-80
2022/09/29 01:06:14;;;;;;;0.10;0.10;;;;;;;10.03;69.09;100056.09;5068189;28;20028;-80
2022/09/29 01:08:50;;;;;;;0.10;0.10;;;;;;;9.98;68.99;100050.09;5068966;28;20036;-81
2022/09/29 01:11:19;;;;;;;0.10;0.10;;;;;;;9.92;68.87;100050.28;5073733;28;20111;-80
2022/09/29 01:13:46;;;;;;;0.10;0.10;;;;;;;9.90;68.84;100052.09;5071403;28;20460;-80
2022/09/29 01:16:12;;;;;;;0.10;0.10;;;;;;;9.87;69.05;100046.91;5069908;28;20040;-80
2022/09/29 01:18:39;;;;;;;0.10;0.10;;;;;;;9.86;68.72;100045.16;5063944;28;20468;-80
2022/09/29 01:29:51;;;;;;;0.10;0.10;;;;;;;9.82;68.50;100057.63;5073277;28;20402;-81
2022/09/29 01:32:42;;;;;;;0.20;0.20;;;;;;;9.76;68.83;100059.56;5068727;28;20107;-80
2022/09/29 01:40:50;;;;;;;0.10;0.10;;;;;;;9.64;68.42;100053.72;5095454;27;20429;-80
2022/09/29 01:43:27;;;;;;;0.15;0.15;;;;;;;9.63;68.52;100054.66;5068419;28;20458;-81
2022/09/29 01:46:02;;;;;;;0.30;0.30;;;;;;;9.65;68.52;100050.16;5065350;28;20045;-80
2022/09/29 01:48:35;;;;;;;0.20;0.20;;;;;;;9.63;68.57;100048.47;5071646;28;20046;-80
2022/09/29 01:51:08;;;;;;;0.17;0.17;;;;;;;9.61;68.69;100048.53;5073581;28;20530;-81
2022/09/29 01:53:41;;;;;;;0.20;0.20;;;;;;;9.59;68.33;100050.34;5070296;28;20021;-81
2022/09/29 01:56:14;;;;;;;0.10;0.10;;;;;;;9.57;68.57;100052.19;5069389;28;20709;-80
2022/09/29 01:58:53;;;;;;;0.10;0.10;;;;;;;9.58;68.48;100051.25;5067255;28;20021;-80
2022/09/29 02:01:24;;;;;;;0.10;0.10;;;;;;;9.54;68.75;100049.59;5068413;28;20033;-81
2022/09/29 02:03:58;;;;;;;0.20;0.20;;;;;;;9.52;68.05;100056.72;5071238;28;20092;-80
2022/09/29 02:06:31;;;;;;;0.10;0.10;;;;;;;9.50;68.33;100059.41;5071967;28;20044;-80
2022/09/29 02:09:01;;;;;;;0.10;0.10;;;;;;;9.49;68.49;100056.81;5070085;28;20262;-80
2022/09/29 02:11:29;;;;;;;0.13;0.13;;;;;;;9.41;68.72;100049.09;5071631;28;20115;-80
2022/09/29 02:14:07;;;;;;;0.10;0.10;;;;;;;9.48;68.81;100049.78;5068035;28;20099;-80
2022/09/29 02:16:46;;;;;;;0.10;0.10;;;;;;;9.48;68.44;100049.78;5069324;28;20055;-80
2022/09/29 02:22:17;;;;;;;0.10;0.10;;;;;;;9.49;68.81;100052.38;5057583;28;20387;-80
2022/09/29 02:24:43;;;;;;;0.10;0.10;;;;;;;9.50;68.67;100040.03;5033197;28;20468;-80
2022/09/29 02:27:10;;;;;;;0.10;0.10;;;;;;;9.50;68.90;100045.31;5031803;28;20037;-80
2022/09/29 02:29:37;;;;;;;0.10;0.10;;;;;;;9.49;68.76;100049.72;5032430;28;20029;-80
2022/09/29 02:32:05;;;;;;;0.10;0.10;;;;;;;9.49;68.79;100040.94;5033808;28;20060;-81
2022/09/29 02:34:36;;;;;;;0.10;0.10;;;;;;;9.50;68.60;100047.97;5038557;28;20511;-80
2022/09/29 02:42:55;;;;;;;0.20;0.20;;;;;;;9.51;68.43;100049.72;5077660;27;20754;-80
2022/09/29 02:51:25;;;;;;;0.10;0.10;;;;;;;9.46;68.54;100041.00;5095493;27;20385;-80
2022/09/29 02:54:17;;;;;;;0.20;0.20;;;;;;;9.37;68.53;100037.75;5091960;28;20056;-80
2022/09/29 02:56:57;;;;;;;0.10;0.10;;;;;;;9.32;68.43;100054.63;5091565;28;20026;-80
2022/09/29 02:59:37;;;;;;;0.10;0.10;;;;;;;9.29;68.64;100049.44;5094336;28;20027;-80
2022/09/29 03:02:03;;;;;;;0.10;0.10;;;;;;;9.22;68.35;100064.56;5094575;28;20556;-80
2022/09/29 03:04:29;;;;;;;0.10;0.10;;;;;;;9.19;68.26;100059.38;5100727;27;20029;-80
2022/09/29 03:06:55;;;;;;;0.10;0.10;;;;;;;9.17;68.22;100056.78;5094715;28;20137;-80
2022/09/29 03:09:21;;;;;;;0.15;0.15;;;;;;;9.16;68.31;100060.34;5090463;28;20051;-80
2022/09/29 03:11:48;;;;;;;0.20;0.20;;;;;;;9.14;68.50;100051.56;5092296;28;20089;-80
2022/09/29 03:14:14;;;;;;;0.13;0.13;;;;;;;9.14;68.54;100063.94;5100050;28;20031;-80
2022/09/29 03:16:40;;;;;;;0.13;0.13;;;;;;;9.14;68.97;100061.28;5090552;28;20028;-80
2022/09/29 03:19:06;;;;;;;0.20;0.20;;;;;;;9.14;68.32;100067.44;5097237;28;20029;-80
2022/09/29 03:21:32;;;;;;;0.10;0.10;;;;;;;9.14;68.33;100071.88;5104379;28;20016;-80
2022/09/29 03:23:59;;;;;;;0.13;0.13;;;;;;;9.13;68.55;100060.41;5089752;28;20032;-80
2022/09/29 03:26:25;;;;;;;0.10;0.10;;;;;;;9.14;68.61;100072.72;5090252;28;20449;-80
2022/09/29 03:28:52;;;;;;;0.30;0.30;;;;;;;9.14;68.75;100070.06;5090114;28;20025;-80
2022/09/29 03:31:19;;;;;;;0.15;0.15;;;;;;;9.14;68.77;100067.44;5090757;28;20036;-80
2022/09/29 03:33:45;;;;;;;0.10;0.10;;;;;;;9.12;68.89;100063.97;5094710;28;20040;-80
2022/09/29 03:36:11;;;;;;;0.20;0.20;;;;;;;9.14;68.81;100071.88;5096645;28;20086;-80
2022/09/29 03:38:38;;;;;;;0.20;0.20;;;;;;;9.12;68.71;100074.56;5093806;28;20029;-80
2022/09/29 03:41:05;;;;;;;0.85;0.68;;;;;;;9.12;68.27;100078.94;5090063;28;20032;-80
2022/09/29 03:43:31;;;;;;;0.20;0.20;;;;;;;9.10;68.65;100080.75;5090388;28;20039;-80
2022/09/29 03:45:57;;;;;;;0.10;0.10;;;;;;;9.09;68.34;100079.03;5090040;28;20024;-80
2022/09/29 03:48:26;;;;;;;0.20;0.20;;;;;;;9.06;68.09;100083.50;5097492;28;20034;-80
2022/09/29 03:50:53;;;;;;;0.15;0.15;;;;;;;9.03;68.77;100078.31;5092938;28;20145;-80
2022/09/29 03:53:19;;;;;;;0.10;0.10;;;;;;;9.01;68.18;100077.47;5092830;28;20499;-80
2022/09/29 03:55:47;;;;;;;0.10;0.10;;;;;;;9.01;68.46;100077.47;5090602;28;21213;-80
2022/09/29 03:58:14;;;;;;;0.10;0.10;;;;;;;9.01;68.43;100080.09;5089792;28;20559;-80
2022/09/29 04:00:41;;;;;;;0.10;0.10;;;;;;;9.00;68.30;100080.16;5084757;28;20052;-80
2022/09/29 04:03:07;;;;;;;0.10;0.10;;;;;;;8.97;68.14;100080.22;5085050;28;20032;-80
2022/09/29 04:05:37;;;;;;;0.10;0.10;;;;;;;8.96;68.32;100083.75;5086696;28;20044;-80
2022/09/29 04:08:04;;;;;;;0.15;0.15;;;;;;;8.95;68.37;100082.91;5080185;28;20120;-80
2022/09/29 04:10:34;;;;;;;0.10;0.10;;;;;;;8.95;68.30;100076.72;5075788;28;20085;-80
2022/09/29 04:13:00;;;;;;;0.10;0.10;;;;;;;8.93;68.05;100079.44;5077123;28;20035;-80
2022/09/29 04:15:26;;;;;;;0.10;0.10;;;;;;;8.93;68.29;100079.44;5078972;28;20024;-80
2022/09/29 04:17:52;;;;;;;0.10;0.10;;;;;;;8.93;68.25;100084.72;5082251;28;20036;-80
2022/09/29 04:20:18;;;;;;;0.10;0.10;;;;;;;8.95;67.89;100093.47;5079756;28;20025;-80
2022/09/29 04:22:44;;;;;;;0.17;0.17;;;;;;;8.96;68.37;100094.31;5080862;28;20052;-80
2022/09/29 04:25:10;;;;;;;0.13;0.13;;;;;;;8.97;67.92;100091.66;5076490;28;20032;-80
2022/09/29 04:27:37;;;;;;;0.10;0.10;;;;;;;8.96;68.15;100094.31;5075823;28;20101;-80
2022/09/29 04:30:04;;;;;;;0.10;0.10;;;;;;;8.95;68.22;100092.59;5091325;28;20124;-80
2022/09/29 04:32:30;;;;;;;0.10;0.10;;;;;;;8.94;68.18;100096.16;5093701;28;20025;-80
2022/09/29 04:34:56;;;;;;;0.20;0.20;;;;;;;8.93;68.21;100087.34;5095223;28;20107;-80
2022/09/29 04:37:22;;;;;;;0.20;0.20;;;;;;;8.93;67.71;100097.06;5095360;28;20380;-80
2022/09/29 04:39:49;;;;;;;0.10;0.10;;;;;;;8.93;68.30;100100.56;5090673;28;20024;-80
2022/09/29 04:42:15;;;;;;;1.70;1.58;;;;;;;8.90;67.90;100090.94;5084791;28;20032;-80
2022/09/29 04:44:41;;;;;;;0.20;0.20;;;;;;;8.90;68.11;100098.00;5085445;28;20028;-80
2022/09/29 04:47:07;;;;;;;0.13;0.13;;;;;;;8.90;68.02;100103.28;5088598;28;20491;-80
2022/09/29 04:49:33;;;;;;;0.10;0.10;;;;;;;8.89;68.26;100104.19;5110759;28;20072;-80
2022/09/29 04:52:00;;;;;;;0.10;0.10;;;;;;;8.83;67.96;100105.19;5103809;28;20047;-80
2022/09/29 04:54:30;;;;;;;0.20;0.20;;;;;;;8.89;67.88;100109.47;5105735;28;20080;-80
2022/09/29 04:56:56;;;;;;;0.15;0.15;;;;;;;8.86;67.95;100107.78;5091984;28;20027;-80
2022/09/29 04:59:23;;;;;;;0.10;0.10;;;;;;;8.81;67.56;100119.34;5083261;28;20028;-80
2022/09/29 05:01:49;;;;;;;0.10;0.10;;;;;;;8.77;68.14;100115.91;5079858;28;20032;-80
2022/09/29 05:04:15;;;;;;;0.10;0.10;;;;;;;8.72;67.54;100118.69;5081152;28;20581;-80
2022/09/29 05:06:41;;;;;;;0.10;0.10;;;;;;;8.69;68.07;100121.38;5080417;28;20423;-80
2022/09/29 05:09:07;;;;;;;0.20;0.20;;;;;;;8.66;67.48;100124.13;5079255;28;20479;-80
2022/09/29 05:11:34;;;;;;;0.20;0.20;;;;;;;8.62;67.84;100127.72;5082072;28;20038;-79
2022/09/29 05:14:00;;;;;;;0.10;0.10;;;;;;;8.60;68.10;100132.19;5078839;28;20086;-80
2022/09/29 05:16:26;;;;;;;0.20;0.20;;;;;;;8.57;67.97;100132.25;5077058;28;20495;-80
2022/09/29 05:18:52;;;;;;;0.15;0.15;;;;;;;8.57;68.06;100140.16;5080738;28;20557;-80
2022/09/29 05:21:19;;;;;;;0.10;0.10;;;;;;;8.57;67.82;100145.44;5085892;28;20032;-79
2022/09/29 05:23:45;;;;;;;0.20;0.20;;;;;;;8.58;68.10;100148.06;5082924;28;20048;-80
2022/09/29 05:26:12;;;;;;;0.10;0.10;;;;;;;8.63;67.98;100147.09;5076619;28;20025;-80
2022/09/29 05:28:42;;;;;;;0.20;0.20;;;;;;;8.69;68.63;100155.72;5084300;28;20081;-79
2022/09/29 05:31:09;;;;;;;0.10;0.10;;;;;;;8.73;68.47;100156.53;5091322;28;20048;-80
2022/09/29 05:33:36;;;;;;;0.20;0.20;;;;;;;8.78;68.39;100159.06;5089971;28;20498;-80
2022/09/29 05:36:07;;;;;;;0.20;0.20;;;;;;;8.83;68.28;100149.25;5083067;28;20036;-80
2022/09/29 05:38:34;;;;;;;0.20;0.20;;;;;;;8.82;68.38;100160.72;5080584;28;20032;-80
2022/09/29 05:41:05;;;;;;;0.20;0.20;;;;;;;8.81;68.63;100158.97;5087920;28;20043;-80
2022/09/29 05:43:31;;;;;;;0.20;0.20;;;;;;;8.77;68.32;100155.53;5089727;28;20047;-80
2022/09/29 05:46:00;;;;;;;0.20;0.20;;;;;;;8.80;68.30;100162.50;5101326;28;20028;-80
2022/09/29 05:48:29;;;;;;;0.10;0.10;;;;;;;8.80;68.73;100160.75;5093966;28;20032;-80
2022/09/29 05:50:55;;;;;;;0.10;0.10;;;;;;;8.81;68.88;100165.16;5091156;28;20020;-80
2022/09/29 05:53:22;;;;;;;0.10;0.10;;;;;;;8.85;68.91;100165.94;5089141;28;20615;-80
2022/09/29 05:55:48;;;;;;;0.10;0.10;;;;;;;8.88;68.86;100163.22;5088048;28;20037;-80
2022/09/29 05:58:15;;;;;;;0.10;0.10;;;;;;;8.90;68.49;100169.34;5087809;28;20028;-80
2022/09/29 06:00:41;;;;;;;0.20;0.20;;;;;;;8.93;68.44;100166.63;5075898;28;20076;-80
2022/09/29 06:03:07;;;;;;;0.17;0.17;;;;;;;8.95;68.47;100170.09;5079096;28;20051;-80
2022/09/29 06:05:38;;;;;;;0.55;0.55;;;;;;;9.02;68.59;100169.03;5093022;28;20036;-80
2022/09/29 06:08:04;;;;;;;0.10;0.10;;;;;;;9.02;69.03;100176.09;5080003;28;20028;-80
2022/09/29 06:10:31;;;;;;;0.20;0.20;;;;;;;9.00;68.78;100165.56;5095837;28;20107;-80
2022/09/29 06:12:57;;;;;;;0.15;0.15;;;;;;;9.01;68.51;100174.34;5085811;28;20059;-80
2022/09/29 06:15:23;;;;;;;0.20;0.20;;;;;;;9.02;69.11;100174.34;5102367;28;20028;-80
2022/09/29 06:17:58;;;;;;;0.20;0.20;;;;;;;9.12;68.99;100179.38;5079882;28;20029;-80
2022/09/29 06:20:24;;;;;;;0.95;0.82;;;;;;;9.12;69.33;100179.38;5074597;28;20021;-80
2022/09/29 06:22:54;;;;;;;0.10;0.10;;;;;;;9.17;69.39;100177.47;5073953;28;20511;-80
2022/09/29 06:25:20;;;;;;;0.13;0.13;;;;;;;9.17;69.42;100177.47;5081289;28;20024;-80
2022/09/29 06:27:46;;;;;;;0.22;0.22;;;;;;;9.19;69.16;100184.47;5099171;28;20448;-80
2022/09/29 06:30:13;;;;;;;0.20;0.20;;;;;;;9.19;68.96;100189.75;5076719;28;20055;-80
2022/09/29 06:32:39;;;;;;;0.10;0.10;;;;;;;9.22;69.47;100187.06;5085487;28;20044;-80
2022/09/29 06:37:55;;;;;;;0.10;0.10;;;;;;;9.23;69.13;100187.91;5088434;28;20036;-80
2022/09/29 06:40:22;;;;;;;0.10;0.10;;;;;;;9.21;69.42;100195.03;5073751;28;20024;-80
2022/09/29 06:42:48;;;;;;;0.10;0.10;;;;;;;9.22;69.21;100194.97;5086586;28;20081;-80
2022/09/29 06:45:15;;;;;;;0.10;0.10;;;;;;;9.25;69.13;100201.97;5091217;28;20441;-80
2022/09/29 06:47:41;;;;;;;0.20;0.20;;;;;;;9.29;69.65;100200.13;5087896;28;20107;-80
2022/09/29 06:50:08;;;;;;;0.20;0.20;;;;;;;9.33;69.29;100205.28;5072792;28;20033;-80
2022/09/29 06:52:34;;;;;;;0.10;0.10;;;;;;;9.38;69.33;100199.88;5073400;28;20029;-80
2022/09/29 06:55:00;;;;;;;0.20;0.20;;;;;;;9.45;69.51;100208.53;5073292;28;20499;-79
2022/09/29 06:57:26;;;;;;;0.20;0.20;;;;;;;9.48;69.62;100213.72;5075812;28;20514;-80
2022/09/29 06:59:53;;;;;;;0.10;0.10;;;;;;;9.51;69.39;100214.53;5075610;28;20028;-80
2022/09/29 07:02:19;;;;;;;0.20;0.20;;;;;;;9.54;69.16;100218.84;5075532;28;20496;-79
2022/09/29 07:04:47;;;;;;;0.10;0.10;;;;;;;9.56;69.53;100219.69;5072921;28;20119;-79
2022/09/29 07:07:14;;;;;;;0.43;0.43;;;;;;;9.60;69.58;100221.34;5075522;28;20549;-79
2022/09/29 07:09:41;;;;;;;0.10;0.10;;;;;;;9.65;69.31;100222.09;5072289;28;20020;-79
2022/09/29 07:12:07;;;;;;;0.20;0.20;;;;;;;9.70;69.32;100220.19;5072591;28;20113;-79
2022/09/29 07:14:33;;;;;;;0.10;0.10;;;;;;;9.77;69.55;100214.72;5077572;28;20494;-79
2022/09/29 07:17:00;;;;;;;0.98;0.90;;;;;;;9.82;69.50;100212.81;5076138;28;20407;-80
2022/09/29 07:19:28;;;;;;;0.68;0.68;;;;;;;9.85;69.62;100216.25;5079379;28;20027;-79
2022/09/29 07:21:54;;;;;;;1.35;1.30;;;;;;;9.88;69.36;100212.66;5073285;28;20541;-79
2022/09/29 07:24:20;;;;;;;0.77;0.77;;;;;;;9.94;69.55;100223.09;5073103;28;20423;-79
2022/09/29 07:26:46;;;;;;;0.10;0.10;;;;;;;10.00;69.56;100222.91;5073423;28;20060;-80
2022/09/29 07:29:12;;;;;;;0.10;0.10;;;;;;;10.10;69.72;100227.97;5073890;28;20028;-80
2022/09/29 07:31:39;;;;;;;0.30;0.30;;;;;;;10.15;69.65;100234.00;5073141;28;20403;-79
2022/09/29 07:34:05;;;;;;;0.40;0.40;;;;;;;10.22;69.85;100234.69;5072784;28;20021;-79
2022/09/29 07:36:32;;;;;;;0.10;0.10;;;;;;;10.26;69.83;100231.91;5076429;28;20483;-80
2022/09/29 07:38:58;;;;;;;0.10;0.10;;;;;;;10.30;69.86;100241.50;5081776;28;20017;-79
2022/09/29 07:41:24;;;;;;;0.10;0.10;;;;;;;10.32;69.76;100234.38;5081063;28;20411;-79
2022/09/29 07:43:52;;;;;;;0.10;0.10;;;;;;;10.35;69.88;100239.59;5082175;28;20495;-79
2022/09/29 07:46:18;;;;;;;0.20;0.20;;;;;;;10.40;70.00;100241.28;5082957;28;20029;-79
2022/09/29 07:48:44;;;;;;;0.10;0.10;;;;;;;10.47;69.80;100245.50;5075638;28;20039;-79
2022/09/29 07:51:14;;;;;;;0.43;0.43;;;;;;;10.53;69.88;100240.03;5076236;28;20047;-79
2022/09/29 07:53:40;;;;;;;0.20;0.20;;;;;;;10.58;70.00;100248.69;5075817;28;20392;-80
2022/09/29 07:56:11;;;;;;;0.10;0.10;;;;;;;10.66;70.02;100244.00;5078620;28;20033;-79
2022/09/29 07:58:38;;;;;;;0.30;0.30;;;;;;;10.74;70.04;100258.81;5086095;28;20031;-79
2022/09/29 08:01:09;;;;;;;0.10;0.10;;;;;;;10.84;70.38;100255.84;5087687;28;20036;-79
2022/09/29 08:03:36;;;;;;;0.10;0.10;;;;;;;10.96;70.11;100259.03;5086548;28;20031;-80
2022/09/29 08:06:03;;;;;;;0.20;0.20;;;;;;;11.08;69.97;100260.41;5085468;28;20492;-80
2022/09/29 08:08:29;;;;;;;0.10;0.10;;;;;;;11.18;70.16;100261.88;5076745;28;20020;-80
2022/09/29 08:11:13;;;;;;;0.30;0.30;;;;;;;11.37;70.55;100264.81;5075835;28;20087;-80
2022/09/29 08:13:40;;;;;;;0.10;0.10;;;;;;;11.39;70.13;100264.75;5084258;28;20072;-80
2022/09/29 08:16:09;;;;;;;0.13;0.13;;;;;;;11.47;70.46;100273.34;5083473;28;20051;-80
2022/09/29 08:18:35;;;;;;;0.10;0.10;;;;;;;11.57;70.56;100279.19;5076345;28;20474;-80
2022/09/29 08:21:03;;;;;;;0.45;0.45;;;;;;;11.65;70.37;100275.38;5075726;28;20133;-80
2022/09/29 08:23:30;;;;;;;0.10;0.10;;;;;;;11.75;70.36;100285.66;5080207;28;20048;-80
2022/09/29 08:26:07;;;;;;;0.10;0.10;;;;;;;11.90;70.42;100287.81;5079097;28;20104;-79
2022/09/29 08:28:35;;;;;;;0.10;0.10;;;;;;;11.94;70.38;100289.44;5083426;28;20064;-80
2022/09/29 08:31:04;;;;;;;0.10;0.10;;;;;;;12.05;70.93;100297.06;5088938;28;20104;-80
2022/09/29 08:33:32;;;;;;;0.95;0.85;;;;;;;12.14;70.99;100301.19;5077634;28;20526;-80
2022/09/29 08:35:59;;;;;;;1.45;0.82;;;;;;;12.22;70.55;100309.72;5076695;28;20028;-80
2022/09/29 08:38:26;;;;;;;0.10;0.10;;;;;;;12.30;70.33;100306.81;5078540;28;20643;-80
2022/09/29 08:40:55;;;;;;;0.20;0.20;;;;;;;12.43;70.66;100312.56;5075513;28;20017;-80
2022/09/29 08:46:30;;;;;;;0.30;0.30;;;;;;;12.66;70.75;100318.81;5063371;28;20766;-79
2022/09/29 08:48:59;;;;;;;0.10;0.10;;;;;;;12.73;70.54;100322.97;5065749;28;20096;-79
2022/09/29 08:51:38;;;;;;;0.10;0.10;;;;;;;12.89;70.80;100325.94;5070441;28;20619;-80
2022/09/29 08:54:19;;;;;;;0.20;0.20;;;;;;;12.95;70.30;100326.56;5052147;28;20128;-80
2022/09/29 08:56:45;;;;;;;0.10;0.10;;;;;;;13.00;70.02;100325.53;5050657;28;20025;-80
2022/09/29 08:59:11;;;;;;;0.10;0.10;;;;;;;13.12;70.41;100327.69;5049521;28;20507;-80
2022/09/29 09:01:57;;;;;;;5.10;1.20;;;;;;;13.31;70.59;100326.97;5051695;28;20029;-80
2022/09/29 09:07:39;;;;;;;0.10;0.10;;;;;;;13.63;70.12;100324.84;5068337;28;20378;-79
2022/09/29 09:10:26;;;;;;;0.98;0.57;;;;;;;13.74;70.24;100320.81;5047745;28;20380;-79
2022/09/29 09:21:42;;;;;;;0.20;0.20;;;;;;;14.04;69.19;100332.88;5102044;27;20816;-80
2022/09/29 09:24:25;;;;;;;0.08;0.08;;;;;;;14.12;69.36;100335.22;5092727;28;20111;-79
2022/09/29 09:26:52;;;;;;;0.10;0.10;;;;;;;14.15;69.12;100335.97;5091944;28;20043;-80
2022/09/29 09:32:05;;;;;;;0.03;0.03;;;;;;;14.37;69.07;100332.38;5093336;27;20395;-79
2022/09/29 09:34:57;;;;;;;0.20;0.20;;;;;;;14.50;69.14;100330.88;5082332;28;20040;-79
2022/09/29 09:37:31;;;;;;;0.10;0.10;;;;;;;14.61;68.87;100332.22;5089153;28;20025;-79
2022/09/29 09:40:25;;;;;;;0.10;0.10;;;;;;;14.73;68.54;100337.03;5087160;28;20074;-79
2022/09/29 09:43:02;;;;;;;0.10;0.10;;;;;;;14.83;68.53;100338.34;5096137;28;20443;-79
2022/09/29 09:45:51;;;;;;;0.10;0.10;;;;;;;14.88;67.78;100335.47;5088236;28;20049;-79
2022/09/29 09:48:36;;;;;;;1.88;0.60;;;;;;;15.04;68.12;100335.59;5074403;28;20031;-79
2022/09/29 09:51:24;;;;;;;0.10;0.10;;;;;;;15.13;68.19;100331.66;5075646;28;20059;-79
2022/09/29 09:53:55;;;;;;;0.10;0.10;;;;;;;15.16;67.83;100334.16;5088574;28;20040;-79
2022/09/29 10:01:43;;;;;;;0.80;0.63;;;;;;;15.41;67.14;100344.53;5101956;27;20359;-78
2022/09/29 10:04:12;;;;;;;0.47;0.47;;;;;;;15.51;66.40;100336.94;5104820;28;20039;-78
2022/09/29 10:06:38;;;;;;;0.57;0.57;;;;;;;15.57;66.15;100339.31;5108157;28;20024;-78
2022/09/29 10:09:05;;;;;;;1.27;0.95;;;;;;;15.62;67.21;100336.41;5100393;28;20027;-77
2022/09/29 10:11:31;;;;;;;0.10;0.10;;;;;;;15.68;67.02;100333.44;5105066;28;20024;-80
2022/09/29 10:14:10;;;;;;;0.10;0.10;;;;;;;15.79;66.01;100343.59;5109083;28;20038;-80
2022/09/29 10:19:22;;;;;;;3.03;0.65;;;;;;;15.92;65.74;100338.53;5111711;27;20407;-80
2022/09/29 10:21:49;;;;;;;0.50;0.50;;;;;;;15.97;63.90;100342.69;5113089;28;20042;-79
2022/09/29 10:24:30;;;;;;;0.60;0.60;;;;;;;16.15;64.81;100345.41;5095535;28;20020;-79
2022/09/29 10:27:00;;;;;;;0.80;0.80;;;;;;;16.16;65.23;100342.63;5091876;28;20036;-79
2022/09/29 10:29:48;;;;;;;0.10;0.10;;;;;;;16.30;64.56;100349.09;5094132;28;20027;-79
2022/09/29 10:32:21;;;;;;;0.10;0.10;;;;;;;16.31;65.66;100345.44;5092700;28;20036;-79
2022/09/29 10:34:53;;;;;;;0.10;0.10;;;;;;;16.40;65.88;100352.13;5090951;28;20426;-79
2022/09/29 10:37:34;;;;;;;0.15;0.15;;;;;;;16.53;65.63;100350.53;5102105;28;20020;-79
2022/09/29 10:40:20;;;;;;;0.10;0.10;;;;;;;16.64;64.14;100348.16;5095406;28;20454;-80
2022/09/29 10:42:49;;;;;;;0.10;0.10;;;;;;;16.64;64.84;100348.16;5091120;28;20052;-79
2022/09/29 10:45:45;;;;;;;0.22;0.22;;;;;;;16.80;63.41;100350.03;5104914;28;20032;-79
2022/09/29 10:48:13;;;;;;;0.20;0.20;;;;;;;16.76;61.87;100351.09;5108808;28;20471;-79
2022/09/29 10:53:37;;;;;;;0.10;0.10;;;;;;;16.84;61.75;100354.25;5051003;28;20886;-81
2022/09/29 10:56:16;;;;;;;0.10;0.10;;;;;;;16.95;63.54;100357.22;5051225;28;20067;-80
2022/09/29 10:58:51;;;;;;;0.10;0.10;;;;;;;16.97;64.51;100352.69;5052090;28;20063;-80
2022/09/29 11:01:18;;;;;;;0.10;0.10;;;;;;;17.02;61.06;100359.56;5050904;28;20116;-79
2022/09/29 11:04:00;;;;;;;0.30;0.30;;;;;;;17.20;61.65;100360.38;5043072;28;20033;-79
2022/09/29 11:06:30;;;;;;;0.10;0.10;;;;;;;17.22;63.49;100358.47;5044300;28;20045;-79
2022/09/29 11:11:38;;;;;;;0.10;0.10;;;;;;;17.32;60.35;100350.78;5073378;28;20391;-79
2022/09/29 11:14:04;;;;;;;0.10;0.10;;;;;;;17.39;61.54;100361.06;5061242;28;20107;-79
2022/09/29 11:19:11;;;;;;;0.10;0.10;;;;;;;17.52;58.04;100355.03;5064118;28;20610;-79
2022/09/29 11:21:56;;;;;;;0.10;0.10;;;;;;;17.64;60.42;100365.03;5072449;28;20039;-79
2022/09/29 11:27:50;;;;;;;0.10;0.10;;;;;;;17.83;59.59;100363.97;5108338;27;20121;-79
2022/09/29 11:30:31;;;;;;;0.10;0.10;;;;;;;17.95;60.34;100357.94;5110010;28;20036;-79
2022/09/29 11:33:32;;;;;;;0.10;0.10;;;;;;;18.08;61.67;100361.63;5097412;28;20054;-79
2022/09/29 11:36:13;;;;;;;0.10;0.10;;;;;;;18.18;58.22;100359.25;5093021;28;20016;-79
2022/09/29 11:39:13;;;;;;;0.10;0.10;;;;;;;18.34;62.27;100367.22;5100056;28;20039;-81
2022/09/29 11:47:42;;;;;;;9.40;0.75;;;;;;;18.53;58.49;100368.78;5069819;27;20890;-78
2022/09/29 11:55:59;;;;;;;0.22;0.22;;;;;;;19.10;58.34;100377.88;5089734;28;20363;-80
2022/09/29 12:04:10;;;;;;;0.10;0.10;;;;;;;19.55;56.17;100387.50;5110322;27;20424;-82
2022/09/29 12:07:09;;;;;;;0.10;0.10;;;;;;;19.69;50.36;100377.69;5089463;28;20032;-81
2022/09/29 12:15:27;;;;;;;0.28;0.28;;;;;;;19.43;55.15;100392.78;5061180;28;20396;-81
2022/09/29 12:17:59;;;;;;;0.03;0.03;;;;;;;19.26;57.55;100394.72;5060328;28;20064;-81
2022/09/29 12:20:30;;;;;;;0.10;0.10;;;;;;;19.09;56.16;100393.13;5061249;28;20048;-82
2022/09/29 12:23:03;;;;;;;0.10;0.10;;;;;;;18.93;53.03;100390.53;5047336;28;20099;-80
2022/09/29 12:25:34;;;;;;;0.20;0.20;;;;;;;18.83;57.00;100390.22;5048706;28;20060;-80
2022/09/29 12:28:06;;;;;;;0.10;0.10;;;;;;;18.71;57.15;100399.88;5046397;28;20037;-80
2022/09/29 12:30:55;;;;;;;0.32;0.30;;;;;;;18.64;57.87;100389.63;5049749;28;20029;-80
2022/09/29 12:38:48;;;;;;;0.10;0.10;;;;;;;18.45;54.91;100396.09;5087367;27;20408;-80
2022/09/29 12:41:22;;;;;;;0.30;0.30;;;;;;;18.57;55.21;100391.81;5077533;28;20044;-80
2022/09/29 12:44:02;;;;;;;0.10;0.10;;;;;;;18.71;57.96;100399.88;5085144;28;20044;-80
2022/09/29 12:46:53;;;;;;;0.10;0.10;;;;;;;18.87;58.74;100393.56;5091183;28;20527;-80
2022/09/29 12:49:28;;;;;;;0.10;0.10;;;;;;;18.78;56.68;100396.81;5088585;28;20035;-80
2022/09/29 12:51:56;;;;;;;0.10;0.10;;;;;;;18.73;57.51;100399.81;5090909;28;20024;-80
2022/09/29 12:54:45;;;;;;;0.10;0.10;;;;;;;18.70;54.29;100389.25;5091004;28;20031;-80
2022/09/29 12:57:17;;;;;;;0.10;0.10;;;;;;;18.71;56.34;100394.50;5086014;28;20020;-80
2022/09/29 13:00:07;;;;;;;0.10;0.10;;;;;;;18.82;56.38;100395.69;5082523;28;20044;-80
2022/09/29 13:03:13;;;;;;;0.10;0.10;;;;;;;18.89;55.74;100403.25;5076644;28;20073;-80
2022/09/29 13:06:08;;;;;;;0.00;0.00;;;;;;;18.94;54.93;100400.34;5082883;28;20122;-80
2022/09/29 13:11:49;;;;;;;0.00;0.00;;;;;;;19.01;54.81;100412.38;5112602;27;20419;-80
2022/09/29 13:17:33;;;;;;;0.10;0.10;;;;;;;18.93;55.91;100409.34;5070529;28;20809;-80
2022/09/29 13:23:24;;;;;;;0.10;0.10;;;;;;;18.80;55.91;100411.00;5111119;27;20380;-80
2022/09/29 13:26:05;;;;;;;0.10;0.10;;;;;;;18.81;55.11;100420.78;5107435;28;20383;-80
2022/09/29 13:28:37;;;;;;;0.10;0.10;;;;;;;18.75;55.67;100416.66;5108367;28;20073;-80
2022/09/29 13:31:09;;;;;;;0.10;0.10;;;;;;;18.64;53.78;100420.00;5107200;28;20024;-80
2022/09/29 13:33:35;;;;;;;0.10;0.10;;;;;;;18.53;56.07;100427.81;5110305;28;20115;-80